createdAt,value
2022-09-06T00:00:59.346Z,47.78
2022-09-06T00:03:28.288Z,26.40
2022-09-06T00:05:55.610Z,22.42
2022-09-06T00:08:22.566Z,26.05
2022-09-06T00:11:00.828Z,26.27
2022-09-06T00:13:28.441Z,38.55
2022-09-06T00:15:55.468Z,38.88
2022-09-06T00:18:22.955Z,18.25
2022-09-06T00:20:49.887Z,36.95
2022-09-06T00:23:16.832Z,33.75
2022-09-06T00:25:43.717Z,34.72
2022-09-06T00:28:10.629Z,28.33
2022-09-06T00:30:37.567Z,27.48
2022-09-06T00:33:04.515Z,25.63
2022-09-06T00:35:31.445Z,23.27
2022-09-06T00:37:59.960Z,21.67
2022-09-06T00:40:29.520Z,15.73
2022-09-06T00:42:58.321Z,22.08
2022-09-06T00:45:27.553Z,20.25
2022-09-06T00:47:55.039Z,34.45
2022-09-06T00:50:22.333Z,29.05
2022-09-06T00:52:51.211Z,21.55
2022-09-06T00:55:19.413Z,30.00
2022-09-06T00:57:50.984Z,23.23
2022-09-06T01:00:19.687Z,27.55
2022-09-06T01:02:47.968Z,23.50
2022-09-06T01:05:15.612Z,15.43
2022-09-06T01:08:13.418Z,23.58
2022-09-06T01:10:46.328Z,60.90
2022-09-06T01:13:37.730Z,26.65
2022-09-06T01:16:10.602Z,13.55
2022-09-06T01:18:54.615Z,38.08
2022-09-06T01:21:31.023Z,38.13
2022-09-06T01:24:10.023Z,28.83
2022-09-06T01:26:54.857Z,25.58
2022-09-06T01:29:39.523Z,22.88
2022-09-06T01:32:26.529Z,19.50
2022-09-06T01:35:23.105Z,21.35
2022-09-06T01:37:50.396Z,16.40
2022-09-06T01:40:17.481Z,17.02
2022-09-06T01:42:46.773Z,17.23
2022-09-06T01:45:21.458Z,14.02
2022-09-06T01:48:16.502Z,27.48
2022-09-06T01:50:53.588Z,17.17
2022-09-06T01:53:44.739Z,45.08
2022-09-06T01:56:24.303Z,22.70
2022-09-06T01:59:14.452Z,26.30
2022-09-06T02:01:53.543Z,14.63
2022-09-06T02:04:45.534Z,17.00
2022-09-06T02:07:32.663Z,10.60
2022-09-06T02:10:14.497Z,22.67
2022-09-06T02:12:45.631Z,14.90
2022-09-06T02:15:22.589Z,22.52
2022-09-06T02:17:58.165Z,13.57
2022-09-06T02:20:29.272Z,24.23
2022-09-06T02:22:59.953Z,24.38
2022-09-06T02:25:47.289Z,26.90
2022-09-06T02:28:14.417Z,17.80
2022-09-06T02:30:46.517Z,15.63
2022-09-06T02:33:18.876Z,29.00
2022-09-06T02:35:49.232Z,14.57
2022-09-06T02:38:17.776Z,22.23
2022-09-06T02:40:46.105Z,13.35
2022-09-06T02:43:13.017Z,26.73
2022-09-06T02:45:40.046Z,11.48
2022-09-06T02:48:07.048Z,14.95
2022-09-06T02:50:34.027Z,22.50
2022-09-06T02:53:09.585Z,16.38
2022-09-06T02:55:37.302Z,9.43
2022-09-06T02:58:05.371Z,6.10
2022-09-06T03:00:33.615Z,12.43
2022-09-06T03:03:00.999Z,11.90
2022-09-06T03:05:29.031Z,11.35
2022-09-06T03:07:56.654Z,7.63
2022-09-06T03:10:25.095Z,11.52
2022-09-06T03:12:52.541Z,20.50
2022-09-06T03:15:19.561Z,19.67
2022-09-06T03:17:46.764Z,17.73
2022-09-06T03:20:13.853Z,11.23
2022-09-06T03:22:41.333Z,9.02
2022-09-06T03:25:09.897Z,27.73
2022-09-06T03:27:37.105Z,19.83
2022-09-06T03:30:05.918Z,17.00
2022-09-06T03:32:32.924Z,31.85
2022-09-06T03:34:59.873Z,19.58
2022-09-06T03:37:26.971Z,24.02
2022-09-06T03:39:53.957Z,17.83
2022-09-06T03:42:21.865Z,22.88
2022-09-06T03:44:48.801Z,28.70
2022-09-06T03:47:19.467Z,25.60
2022-09-06T03:49:47.358Z,22.75
2022-09-06T03:52:14.822Z,13.00
2022-09-06T03:54:41.772Z,26.33
2022-09-06T03:57:09.216Z,31.55
2022-09-06T03:59:36.583Z,22.20
2022-09-06T04:02:04.425Z,19.33
2022-09-06T04:04:31.399Z,28.15
2022-09-06T04:06:58.430Z,20.30
2022-09-06T04:09:25.393Z,15.05
2022-09-06T04:11:52.267Z,16.20
2022-09-06T04:14:19.236Z,12.45
2022-09-06T04:16:49.946Z,9.95
2022-09-06T04:19:16.932Z,10.60
2022-09-06T04:21:43.975Z,7.55
2022-09-06T04:24:11.014Z,9.85
2022-09-06T04:26:37.963Z,14.23
2022-09-06T04:29:05.431Z,15.52
2022-09-06T04:31:32.400Z,32.65
2022-09-06T04:33:59.323Z,24.42
2022-09-06T04:36:26.245Z,23.85
2022-09-06T04:38:53.238Z,26.80
2022-09-06T04:41:21.161Z,26.85
2022-09-06T04:43:48.199Z,43.15
2022-09-06T04:46:25.277Z,21.63
2022-09-06T04:48:53.854Z,21.88
2022-09-06T04:51:21.707Z,22.80
2022-09-06T04:53:49.168Z,19.83
2022-09-06T04:56:22.073Z,33.20
2022-09-06T04:58:51.530Z,20.25
2022-09-06T05:01:19.014Z,30.25
2022-09-06T05:03:46.386Z,12.98
2022-09-06T05:06:24.067Z,21.42
2022-09-06T05:08:51.507Z,23.80
2022-09-06T05:11:18.495Z,17.65
2022-09-06T05:13:46.996Z,13.10
2022-09-06T05:16:14.220Z,19.10
2022-09-06T05:18:41.251Z,22.40
2022-09-06T05:21:08.233Z,35.33
2022-09-06T05:23:35.212Z,18.75
2022-09-06T05:26:02.630Z,46.05
2022-09-06T05:28:29.657Z,33.53
2022-09-06T05:31:06.638Z,43.25
2022-09-06T05:33:34.168Z,54.97
2022-09-06T05:36:01.480Z,36.08
2022-09-06T05:38:29.999Z,34.25
2022-09-06T05:40:57.462Z,28.70
2022-09-06T05:43:24.404Z,35.10
2022-09-06T05:45:51.892Z,36.15
2022-09-06T05:48:19.448Z,41.60
2022-09-06T05:50:46.418Z,24.80
2022-09-06T05:53:13.332Z,41.13
2022-09-06T05:55:43.059Z,32.28
2022-09-06T05:58:10.217Z,23.42
2022-09-06T06:00:37.112Z,26.40
2022-09-06T06:03:03.996Z,42.50
2022-09-06T06:05:30.958Z,24.25
2022-09-06T06:07:59.640Z,38.10
2022-09-06T06:10:26.527Z,27.60
2022-09-06T06:12:53.385Z,25.05
2022-09-06T06:15:20.296Z,26.45
2022-09-06T06:17:47.195Z,32.88
2022-09-06T06:20:14.124Z,25.52
2022-09-06T06:22:41.012Z,30.33
2022-09-06T06:25:08.132Z,29.17
2022-09-06T06:27:37.156Z,22.38
2022-09-06T06:30:05.016Z,22.83
2022-09-06T06:32:31.944Z,23.83
2022-09-06T06:34:58.849Z,35.30
2022-09-06T06:37:25.760Z,26.02
2022-09-06T06:39:52.692Z,33.17
2022-09-06T06:42:19.657Z,29.70
2022-09-06T06:44:46.614Z,22.35
2022-09-06T06:47:13.559Z,27.88
2022-09-06T06:49:40.522Z,34.40
2022-09-06T06:52:07.423Z,31.98
2022-09-06T06:54:34.392Z,40.03
2022-09-06T06:57:01.332Z,22.60
2022-09-06T06:59:28.747Z,26.83
2022-09-06T07:01:55.746Z,39.47
2022-09-06T07:04:23.377Z,36.50
2022-09-06T07:12:29.171Z,27.75
2022-09-06T07:14:56.119Z,21.88
2022-09-06T07:17:23.068Z,20.52
2022-09-06T07:22:37.664Z,15.80
2022-09-06T07:25:08.952Z,17.92
2022-09-06T07:27:51.308Z,27.40
2022-09-06T07:30:19.975Z,39.03
2022-09-06T07:32:47.362Z,52.55
2022-09-06T07:35:14.433Z,40.80
2022-09-06T07:37:41.424Z,47.95
2022-09-06T07:40:09.191Z,30.27
2022-09-06T07:42:36.814Z,21.73
2022-09-06T07:45:04.869Z,46.50
2022-09-06T07:55:38.856Z,42.20
2022-09-06T07:58:05.814Z,22.17
2022-09-06T08:00:32.965Z,37.13
2022-09-06T08:02:59.908Z,34.42
2022-09-06T08:11:00.960Z,46.50
2022-09-06T18:16:33.103Z,36.40
2022-09-06T18:19:02.927Z,41.67
2022-09-06T18:21:31.887Z,33.88
2022-09-06T18:23:59.216Z,43.35
2022-09-06T18:26:26.340Z,34.83
2022-09-06T18:28:53.810Z,41.15
2022-09-06T18:31:23.986Z,31.58
2022-09-06T18:33:51.181Z,28.23
2022-09-06T18:36:19.525Z,31.63
2022-09-06T18:38:46.837Z,39.70
2022-09-06T18:41:34.061Z,34.33
2022-09-06T18:44:03.238Z,41.33
2022-09-06T18:46:33.221Z,45.90
2022-09-06T18:49:00.239Z,29.52
2022-09-06T18:51:27.910Z,33.25
2022-09-06T18:53:56.879Z,43.53
2022-09-06T18:56:24.576Z,39.17
2022-09-06T18:58:55.060Z,40.75
2022-09-06T19:01:22.118Z,33.33
2022-09-06T19:03:50.538Z,31.88
2022-09-06T19:06:21.514Z,61.53
2022-09-06T19:08:49.978Z,41.67
2022-09-06T19:11:18.632Z,40.20
2022-09-06T19:13:49.639Z,51.75
2022-09-06T19:16:17.140Z,28.23
2022-09-06T19:18:44.269Z,29.73
2022-09-06T19:21:13.662Z,37.83
2022-09-06T19:23:44.332Z,36.63
2022-09-06T19:26:17.914Z,34.40
2022-09-06T19:28:49.346Z,41.80
2022-09-06T19:31:17.356Z,44.20
2022-09-06T19:33:46.269Z,47.50
2022-09-06T19:36:14.305Z,28.20
2022-09-06T19:39:01.968Z,31.23
2022-09-06T19:41:30.239Z,45.55
2022-09-06T19:43:58.477Z,40.63
2022-09-06T19:46:27.686Z,28.45
2022-09-06T19:48:58.908Z,37.30
2022-09-06T19:51:25.989Z,37.28
2022-09-06T19:53:57.609Z,33.58
2022-09-06T19:56:27.789Z,33.42
2022-09-06T19:58:56.469Z,37.70
2022-09-06T20:01:25.592Z,35.42
2022-09-06T20:03:53.123Z,37.28
2022-09-06T20:06:20.226Z,51.33
2022-09-06T20:08:54.550Z,33.65
2022-09-06T20:11:23.032Z,31.52
2022-09-06T20:13:50.325Z,34.35
2022-09-06T20:16:20.461Z,39.13
2022-09-06T20:18:48.432Z,38.63
2022-09-06T20:21:15.502Z,41.20
2022-09-06T20:23:42.432Z,38.15
2022-09-06T20:26:16.169Z,41.72
2022-09-06T20:28:44.232Z,35.50
2022-09-06T20:31:16.914Z,36.38
2022-09-06T20:33:49.362Z,33.65
2022-09-06T20:36:18.303Z,58.95
2022-09-06T20:38:46.420Z,37.75
2022-09-06T20:41:17.684Z,39.80
2022-09-06T20:43:46.686Z,42.00
2022-09-06T20:46:18.605Z,38.03
2022-09-06T20:48:46.634Z,51.80
2022-09-06T20:51:18.927Z,37.78
2022-09-06T20:53:48.441Z,55.05
2022-09-06T20:56:20.526Z,52.17
2022-09-06T20:58:49.881Z,54.03
2022-09-06T21:01:23.057Z,44.78
2022-09-06T21:03:55.654Z,45.55
2022-09-06T21:06:24.171Z,54.88
2022-09-06T21:08:51.400Z,54.63
2022-09-06T21:11:19.072Z,47.28
2022-09-06T23:15:25.569Z,51.13
2022-09-06T23:17:52.675Z,71.43
2022-09-06T23:20:19.632Z,50.78
2022-09-06T23:22:47.623Z,55.95
2022-09-06T23:25:14.739Z,54.42
2022-09-06T23:27:41.677Z,66.38
2022-09-06T23:30:09.538Z,62.53
2022-09-06T23:32:36.694Z,87.13
2022-09-06T23:35:04.330Z,60.95
2022-09-06T23:37:31.444Z,60.28
2022-09-06T23:39:58.398Z,55.35
2022-09-06T23:42:25.661Z,54.38
2022-09-06T23:44:57.243Z,57.53
2022-09-06T23:47:24.782Z,52.17
2022-09-06T23:49:52.089Z,48.72
2022-09-06T23:52:19.282Z,63.40
2022-09-06T23:54:46.237Z,61.40
2022-09-06T23:57:13.163Z,39.65
2022-09-06T23:59:40.107Z,56.67
